createdAt,value
2018-01-13T00:02:09.452Z,102598.71
2018-01-13T00:05:23.231Z,102594.53
2018-01-13T00:08:37.271Z,102592.86
2018-01-13T00:11:50.488Z,102592.45
2018-01-13T00:15:02.733Z,102586.45
2018-01-13T00:18:15.297Z,102591.05
2018-01-13T00:21:26.469Z,102594.91
2018-01-13T00:24:36.912Z,102594.05
2018-01-13T00:27:49.290Z,102588.08
2018-01-13T00:30:57.348Z,102587.30
2018-01-13T00:34:09.506Z,102585.20
2018-01-13T00:37:20.268Z,102581.95
2018-01-13T00:40:32.137Z,102578.11
2018-01-13T00:43:44.294Z,102580.16
2018-01-13T00:46:54.570Z,102582.41
2018-01-13T00:50:07.231Z,102582.70
2018-01-13T00:53:17.457Z,102582.30
2018-01-13T00:56:29.559Z,102581.82
2018-01-13T00:59:37.957Z,102585.64
2018-01-13T01:02:52.051Z,102580.53
2018-01-13T01:06:02.682Z,102584.34
2018-01-13T01:09:16.908Z,102583.87
2018-01-13T01:12:26.942Z,102586.94
2018-01-13T01:15:38.198Z,102585.53
2018-01-13T01:18:53.584Z,102588.52
2018-01-13T01:22:07.538Z,102588.50
2018-01-13T01:25:24.719Z,102592.36
2018-01-13T01:28:37.478Z,102591.23
2018-01-13T01:31:46.214Z,102597.92
2018-01-13T01:34:59.259Z,102599.18
2018-01-13T01:38:13.876Z,102598.78
2018-01-13T01:41:27.981Z,102599.65
2018-01-13T01:44:39.825Z,102596.17
2018-01-13T01:47:50.487Z,102596.61
2018-01-13T01:51:01.229Z,102595.73
2018-01-13T01:54:11.561Z,102598.63
2018-01-13T01:57:20.932Z,102603.29
2018-01-13T02:00:31.986Z,102596.20
2018-01-13T02:03:43.952Z,102602.97
2018-01-13T02:06:53.284Z,102601.80
2018-01-13T02:10:05.307Z,102600.02
2018-01-13T02:13:17.778Z,102599.67
2018-01-13T02:16:29.729Z,102598.91
2018-01-13T02:19:41.333Z,102598.08
2018-01-13T02:22:51.635Z,102593.88
2018-01-13T02:26:00.980Z,102597.95
2018-01-13T02:29:12.952Z,102594.98
2018-01-13T02:32:23.936Z,102595.34
2018-01-13T02:35:32.432Z,102592.16
2018-01-13T02:38:43.847Z,102596.19
2018-01-13T02:41:54.403Z,102593.69
2018-01-13T02:45:06.764Z,102594.20
2018-01-13T02:48:25.660Z,102585.42
2018-01-13T02:51:52.156Z,102591.22
2018-01-13T02:55:07.734Z,102590.86
2018-01-13T02:58:19.003Z,102591.59
2018-01-13T03:01:27.330Z,102595.01
2018-01-13T03:04:37.018Z,102586.57
2018-01-13T03:07:47.436Z,102583.97
2018-01-13T03:11:00.983Z,102583.67
2018-01-13T03:14:12.025Z,102587.38
2018-01-13T03:17:24.026Z,102587.34
2018-01-13T03:20:32.646Z,102576.09
2018-01-13T03:23:45.059Z,102574.81
2018-01-13T03:26:57.492Z,102573.44
2018-01-13T03:30:06.517Z,102574.84
2018-01-13T03:33:17.527Z,102566.81
2018-01-13T03:36:27.076Z,102568.47
2018-01-13T03:39:47.099Z,102565.81
2018-01-13T03:42:58.884Z,102560.03
2018-01-13T03:46:13.562Z,102557.09
2018-01-13T03:49:30.899Z,102561.22
2018-01-13T03:52:42.126Z,102553.97
2018-01-13T03:55:51.266Z,102557.34
2018-01-13T03:59:00.694Z,102556.91
2018-01-13T04:02:11.036Z,102556.53
2018-01-13T04:05:25.402Z,102560.41
2018-01-13T04:08:40.447Z,102560.02
2018-01-13T04:11:49.150Z,102562.47
2018-01-13T04:15:00.639Z,102557.16
2018-01-13T04:18:10.861Z,102552.94
2018-01-13T04:21:24.775Z,102548.67
2018-01-13T04:24:39.691Z,102553.19
2018-01-13T04:27:51.834Z,102551.52
2018-01-13T04:31:04.326Z,102556.67
2018-01-13T04:34:14.326Z,102557.12
2018-01-13T04:37:24.965Z,102555.44
2018-01-13T04:40:36.684Z,102555.42
2018-01-13T04:43:46.812Z,102557.94
2018-01-13T04:46:57.208Z,102552.79
2018-01-13T04:50:07.116Z,102557.00
2018-01-13T04:53:17.633Z,102551.63
2018-01-13T04:56:28.124Z,102552.07
2018-01-13T04:59:40.539Z,102552.37
2018-01-13T05:02:48.724Z,102558.02
2018-01-13T05:05:57.931Z,102553.38
2018-01-13T05:09:07.791Z,102559.20
2018-01-13T05:12:20.615Z,102555.49
2018-01-13T05:15:30.134Z,102557.20
2018-01-13T05:18:40.178Z,102564.26
2018-01-13T05:21:52.993Z,102559.61
2018-01-13T05:25:04.082Z,102563.53
2018-01-13T05:28:14.429Z,102560.99
2018-01-13T05:31:26.712Z,102564.78
2018-01-13T05:34:35.724Z,102562.58
2018-01-13T05:37:46.448Z,102565.22
2018-01-13T05:40:57.179Z,102562.73
2018-01-13T05:44:23.340Z,102567.28
2018-01-13T05:47:34.150Z,102558.89
2018-01-13T05:50:44.678Z,102555.55
2018-01-13T05:53:54.499Z,102563.17
2018-01-13T05:57:04.342Z,102557.61
2018-01-13T06:00:14.579Z,102557.00
2018-01-13T06:03:25.090Z,102561.62
2018-01-13T06:06:34.797Z,102558.33
2018-01-13T06:09:44.821Z,102566.00
2018-01-13T06:13:02.780Z,102559.26
2018-01-13T06:16:13.274Z,102555.45
2018-01-13T06:19:26.563Z,102549.88
2018-01-13T06:22:36.782Z,102550.62
2018-01-13T06:29:20.356Z,102564.56
2018-01-13T06:32:30.472Z,102560.02
2018-01-13T06:35:40.605Z,102560.48
2018-01-13T06:39:08.779Z,102558.83
2018-01-13T06:42:20.425Z,102551.22
2018-01-13T06:45:36.016Z,102565.46
2018-01-13T06:48:47.991Z,102557.52
2018-01-13T06:51:57.112Z,102558.02
2018-01-13T06:55:05.678Z,102563.04
2018-01-13T06:58:16.060Z,102551.20
2018-01-13T07:01:27.394Z,102549.16
2018-01-13T07:04:37.985Z,102553.36
2018-01-13T07:07:55.431Z,102562.20
2018-01-13T07:11:06.228Z,102562.19
2018-01-13T07:14:16.306Z,102562.58
2018-01-13T07:17:25.109Z,102563.36
2018-01-13T07:20:36.141Z,102554.02
2018-01-13T07:23:45.577Z,102551.10
2018-01-13T07:26:55.462Z,102567.06
2018-01-13T07:30:07.746Z,102559.03
2018-01-13T07:33:17.893Z,102558.19
2018-01-13T07:36:29.567Z,102561.56
2018-01-13T07:39:41.185Z,102563.29
2018-01-13T07:42:53.925Z,102571.29
2018-01-13T07:46:05.997Z,102569.18
2018-01-13T07:49:17.552Z,102580.17
2018-01-13T07:52:28.807Z,102580.14
2018-01-13T07:55:40.630Z,102580.88
2018-01-13T07:58:50.221Z,102581.83
2018-01-13T08:02:02.034Z,102589.26
2018-01-13T08:05:19.840Z,102586.91
2018-01-13T08:08:26.154Z,102588.06
2018-01-13T08:11:37.523Z,102584.78
2018-01-13T08:14:49.621Z,102590.18
2018-01-13T08:17:59.121Z,102594.49
2018-01-13T08:21:06.895Z,102596.63
2018-01-13T08:24:18.030Z,102595.26
2018-01-13T08:27:28.358Z,102593.26
2018-01-13T08:30:38.831Z,102598.35
2018-01-13T08:33:51.821Z,102593.73
2018-01-13T08:36:59.101Z,102596.28
2018-01-13T08:40:06.466Z,102602.63
2018-01-13T08:43:16.535Z,102601.73
2018-01-13T08:46:27.637Z,102602.16
2018-01-13T08:49:36.730Z,102602.95
2018-01-13T08:52:46.836Z,102602.97
2018-01-13T08:55:56.278Z,102605.17
2018-01-13T08:59:04.884Z,102602.63
2018-01-13T09:02:16.831Z,102601.80
2018-01-13T09:05:25.514Z,102604.77
2018-01-13T09:08:37.390Z,102604.39
2018-01-13T09:11:48.988Z,102611.14
2018-01-13T09:14:56.687Z,102607.82
2018-01-13T09:18:06.387Z,102611.62
2018-01-13T09:21:12.481Z,102610.29
2018-01-13T09:24:20.798Z,102611.94
2018-01-13T09:27:32.339Z,102611.41
2018-01-13T09:30:43.453Z,102613.75
2018-01-13T09:33:54.920Z,102612.86
2018-01-13T09:37:02.519Z,102614.98
2018-01-13T09:40:16.500Z,102617.13
2018-01-13T09:43:27.314Z,102619.97
2018-01-13T09:46:34.737Z,102627.20
2018-01-13T09:49:50.539Z,102621.62
2018-01-13T09:53:06.886Z,102626.24
2018-01-13T09:56:17.554Z,102623.88
2018-01-13T09:59:29.085Z,102618.78
2018-01-13T10:02:41.507Z,102621.34
2018-01-13T10:05:50.222Z,102623.02
2018-01-13T10:09:00.428Z,102621.77
2018-01-13T10:12:21.639Z,102620.88
2018-01-13T10:15:30.442Z,102623.66
2018-01-13T10:18:38.893Z,102624.67
2018-01-13T10:21:46.446Z,102628.47
2018-01-13T10:24:56.999Z,102621.31
2018-01-13T10:28:10.515Z,102620.04
2018-01-13T10:31:19.454Z,102625.14
2018-01-13T10:34:29.763Z,102619.63
2018-01-13T10:37:42.407Z,102617.14
2018-01-13T10:40:48.880Z,102622.97
2018-01-13T10:44:00.779Z,102622.44
2018-01-13T10:47:16.504Z,102626.30
2018-01-13T10:50:25.626Z,102622.05
2018-01-13T10:53:34.812Z,102624.66
2018-01-13T10:56:48.398Z,102624.98
2018-01-13T10:59:57.071Z,102623.73
2018-01-13T11:03:06.624Z,102617.92
2018-01-13T11:06:20.071Z,102615.88
2018-01-13T11:09:27.825Z,102618.40
2018-01-13T11:12:38.328Z,102620.50
2018-01-13T11:15:53.500Z,102617.06
2018-01-13T11:19:05.932Z,102614.13
2018-01-13T11:22:13.458Z,102610.80
2018-01-13T11:25:21.982Z,102621.23
2018-01-13T11:28:30.664Z,102620.02
2018-01-13T11:31:45.317Z,102615.73
2018-01-13T11:34:58.567Z,102612.33
2018-01-13T11:38:12.525Z,102616.67
2018-01-13T11:41:19.622Z,102615.28
2018-01-13T11:44:31.833Z,102609.46
2018-01-13T11:47:38.930Z,102609.56
2018-01-13T11:50:47.587Z,102602.03
2018-01-13T11:53:55.191Z,102585.93
2018-01-13T11:57:07.456Z,102586.30
2018-01-13T12:00:22.718Z,102586.40
2018-01-13T12:03:30.998Z,102587.95
2018-01-13T12:06:41.037Z,102585.13
2018-01-13T12:09:49.731Z,102585.44
2018-01-13T12:12:57.703Z,102574.52
2018-01-13T12:16:14.346Z,102575.36
2018-01-13T12:19:26.937Z,102568.91
2018-01-13T12:22:41.149Z,102564.77
2018-01-13T12:25:53.146Z,102558.88
2018-01-13T12:29:03.565Z,102556.83
2018-01-13T12:32:14.121Z,102563.62
2018-01-13T12:35:22.241Z,102563.53
2018-01-13T12:38:31.017Z,102559.17
2018-01-13T12:41:39.891Z,102564.35
2018-01-13T12:44:48.585Z,102564.84
2018-01-13T12:47:58.870Z,102562.34
2018-01-13T12:51:07.593Z,102564.87
2018-01-13T12:54:19.257Z,102568.24
2018-01-13T12:57:25.420Z,102564.20
2018-01-13T13:00:36.657Z,102562.23
2018-01-13T13:03:43.600Z,102556.42
2018-01-13T13:07:09.219Z,102550.53
2018-01-13T13:10:34.849Z,102555.20
2018-01-13T13:13:42.653Z,102553.05
2018-01-13T13:16:54.388Z,102548.44
2018-01-13T13:20:02.485Z,102550.53
2018-01-13T13:23:11.481Z,102554.36
2018-01-13T13:26:22.856Z,102551.34
2018-01-13T13:29:31.336Z,102547.15
2018-01-13T13:32:43.868Z,102546.67
2018-01-13T13:35:52.289Z,102545.83
2018-01-13T13:39:15.237Z,102545.03
2018-01-13T13:42:27.737Z,102549.64
2018-01-13T13:45:35.963Z,102552.91
2018-01-13T13:48:47.839Z,102548.20
2018-01-13T13:51:57.207Z,102554.96
2018-01-13T13:55:05.525Z,102548.30
2018-01-13T13:58:14.476Z,102548.66
2018-01-13T14:01:30.946Z,102551.60
2018-01-13T14:04:40.747Z,102551.15
2018-01-13T14:08:06.916Z,102552.75
2018-01-13T14:11:18.537Z,102557.38
2018-01-13T14:14:25.267Z,102548.05
2018-01-13T14:17:38.183Z,102550.50
2018-01-13T14:21:01.925Z,102553.94
2018-01-13T14:24:11.532Z,102545.06
2018-01-13T14:27:22.162Z,102550.98
2018-01-13T14:30:28.549Z,102552.13
2018-01-13T14:33:39.694Z,102552.52
2018-01-13T14:36:48.547Z,102555.50
2018-01-13T14:39:57.189Z,102558.08
2018-01-13T14:43:04.856Z,102549.59
2018-01-13T14:46:14.176Z,102553.81
2018-01-13T14:49:24.948Z,102557.23
2018-01-13T14:52:33.787Z,102559.65
2018-01-13T14:55:47.402Z,102560.49
2018-01-13T14:58:53.705Z,102552.06
2018-01-13T15:02:18.352Z,102552.40
2018-01-13T15:05:29.768Z,102557.41
2018-01-13T15:08:36.183Z,102556.17
2018-01-13T15:11:47.144Z,102559.53
2018-01-13T15:14:55.561Z,102560.74
2018-01-13T15:18:07.938Z,102560.80
2018-01-13T15:21:17.912Z,102556.52
2018-01-13T15:24:26.679Z,102555.72
2018-01-13T15:27:39.605Z,102557.36
2018-01-13T15:30:51.456Z,102560.67
2018-01-13T15:33:58.872Z,102567.41
2018-01-13T15:37:08.703Z,102561.56
2018-01-13T15:40:17.243Z,102568.23
2018-01-13T15:43:27.294Z,102572.00
2018-01-13T15:46:35.070Z,102579.18
2018-01-13T15:49:43.834Z,102582.28
2018-01-13T15:52:51.185Z,102572.89
2018-01-13T15:55:59.493Z,102577.88
2018-01-13T15:59:08.574Z,102587.14
2018-01-13T16:02:23.144Z,102586.28
2018-01-13T16:05:33.418Z,102579.89
2018-01-13T16:08:40.626Z,102581.97
2018-01-13T16:11:51.044Z,102578.12
2018-01-13T16:14:59.723Z,102567.15
2018-01-13T16:18:10.064Z,102567.18
2018-01-13T16:21:16.177Z,102570.07
2018-01-13T16:24:41.388Z,102574.69
2018-01-13T16:27:48.649Z,102571.67
2018-01-13T16:30:57.022Z,102570.80
2018-01-13T16:34:04.920Z,102571.66
2018-01-13T16:37:14.008Z,102567.40
2018-01-13T16:40:29.062Z,102567.83
2018-01-13T16:43:38.360Z,102563.98
2018-01-13T16:46:48.935Z,102569.97
2018-01-13T16:49:55.919Z,102566.08
2018-01-13T16:53:06.975Z,102565.67
2018-01-13T16:56:16.119Z,102568.21
2018-01-13T16:59:24.450Z,102571.12
2018-01-13T17:02:38.550Z,102571.11
2018-01-13T17:05:48.954Z,102575.66
2018-01-13T17:08:56.205Z,102571.84
2018-01-13T17:12:13.821Z,102562.14
2018-01-13T17:15:22.056Z,102559.20
2018-01-13T17:18:29.100Z,102564.25
2018-01-13T17:21:39.576Z,102554.06
2018-01-13T17:24:47.868Z,102551.52
2018-01-13T17:28:02.954Z,102553.25
2018-01-13T17:31:12.313Z,102548.05
2018-01-13T17:34:21.105Z,102544.77
2018-01-13T17:37:34.584Z,102542.53
2018-01-13T17:40:45.317Z,102533.98
2018-01-13T17:43:59.837Z,102537.78
2018-01-13T17:47:06.856Z,102542.42
2018-01-13T17:50:13.616Z,102539.45
2018-01-13T17:53:23.296Z,102531.97
2018-01-13T17:56:32.315Z,102532.28
2018-01-13T17:59:42.945Z,102528.33
2018-01-13T18:02:52.341Z,102531.30
2018-01-13T18:06:00.891Z,102541.33
2018-01-13T18:09:20.846Z,102551.39
2018-01-13T18:12:29.869Z,102550.20
2018-01-13T18:15:42.370Z,102546.30
2018-01-13T18:18:51.006Z,102550.94
2018-01-13T18:22:00.144Z,102538.72
2018-01-13T18:25:06.480Z,102543.73
2018-01-13T18:28:19.626Z,102542.84
2018-01-13T18:31:34.100Z,102543.56
2018-01-13T18:34:41.182Z,102541.02
2018-01-13T18:37:51.810Z,102538.52
2018-01-13T18:41:00.036Z,102536.77
2018-01-13T18:44:08.888Z,102531.73
2018-01-13T18:47:17.280Z,102541.02
2018-01-13T18:50:26.888Z,102535.45
2018-01-13T18:53:39.220Z,102537.16
2018-01-13T18:56:46.179Z,102534.58
2018-01-13T19:00:01.806Z,102542.16
2018-01-13T19:03:17.208Z,102544.58
2018-01-13T19:06:30.213Z,102545.84
2018-01-13T19:09:42.485Z,102546.27
2018-01-13T19:12:59.567Z,102544.97
2018-01-13T19:16:11.122Z,102540.76
2018-01-13T19:19:18.142Z,102538.63
2018-01-13T19:22:25.592Z,102539.51
2018-01-13T19:25:34.826Z,102544.13
2018-01-13T19:28:45.897Z,102545.45
2018-01-13T19:31:55.877Z,102544.55
2018-01-13T19:35:05.575Z,102545.75
2018-01-13T19:38:15.111Z,102544.50
2018-01-13T19:41:24.266Z,102543.55
2018-01-13T19:44:33.334Z,102546.84
2018-01-13T19:51:01.807Z,102541.28
2018-01-13T19:54:10.091Z,102544.66
2018-01-13T19:57:16.339Z,102551.83
2018-01-13T20:00:32.107Z,102538.74
2018-01-13T20:03:41.113Z,102541.17
2018-01-13T20:06:47.861Z,102541.68
2018-01-13T20:09:54.984Z,102538.64
2018-01-13T20:13:05.455Z,102538.31
2018-01-13T20:16:14.914Z,102543.30
2018-01-13T20:19:27.754Z,102546.16
2018-01-13T20:22:34.051Z,102547.05
2018-01-13T20:25:44.016Z,102544.50
2018-01-13T20:28:55.367Z,102545.75
2018-01-13T20:32:01.775Z,102539.06
2018-01-13T20:35:09.775Z,102544.43
2018-01-13T20:38:17.869Z,102539.38
2018-01-13T20:41:25.330Z,102536.31
2018-01-13T20:44:35.253Z,102527.96
2018-01-13T20:47:48.930Z,102538.15
2018-01-13T20:50:57.792Z,102543.53
2018-01-13T20:54:07.808Z,102535.66
2018-01-13T20:57:14.391Z,102527.19
2018-01-13T21:00:24.383Z,102524.01
2018-01-13T21:03:32.552Z,102520.67
2018-01-13T21:06:50.364Z,102526.59
2018-01-13T21:09:58.665Z,102527.27
2018-01-13T21:13:20.856Z,102533.22
2018-01-13T21:16:40.928Z,102532.46
2018-01-13T21:20:03.024Z,102540.92
2018-01-13T21:23:23.818Z,102535.88
2018-01-13T21:26:48.278Z,102526.13
2018-01-13T21:30:13.850Z,102528.79
2018-01-13T21:33:35.268Z,102517.28
2018-01-13T21:37:03.226Z,102518.23
2018-01-13T21:40:17.258Z,102506.94
2018-01-13T21:43:26.244Z,102505.55
2018-01-13T21:46:49.270Z,102494.26
2018-01-13T21:50:18.269Z,102493.64
2018-01-13T21:53:50.150Z,102495.34
2018-01-13T22:01:08.378Z,102487.53
2018-01-13T22:04:39.974Z,102486.44
2018-01-13T22:11:37.749Z,102491.28
2018-01-13T22:15:09.255Z,102492.56
2018-01-13T22:26:07.273Z,102502.95
2018-01-13T22:29:52.072Z,102498.72
2018-01-13T22:33:21.406Z,102495.81
2018-01-13T22:36:49.691Z,102495.51
2018-01-13T22:43:54.756Z,102497.05
2018-01-13T22:47:23.946Z,102492.44
2018-01-13T22:51:12.025Z,102493.23
2018-01-13T22:54:41.513Z,102494.59
2018-01-13T22:58:17.014Z,102487.95
2018-01-13T23:09:09.075Z,102482.66
2018-01-13T23:12:52.774Z,102474.89
2018-01-13T23:20:00.749Z,102473.88
2018-01-13T23:23:30.907Z,102470.77
2018-01-13T23:31:01.510Z,102464.05
2018-01-13T23:34:28.191Z,102466.66
2018-01-13T23:38:08.091Z,102463.22
2018-01-13T23:41:32.959Z,102455.13
2018-01-13T23:45:08.539Z,102454.84
2018-01-13T23:48:42.145Z,102456.87
2018-01-13T23:52:13.390Z,102454.66
2018-01-13T23:55:46.124Z,102447.19
2018-01-13T23:59:17.316Z,102441.73
